sensor_id;sensor_type;location;lat;lon;timestamp;temperature;humidity
10095;DHT22;5086;50.830;7.102;2023-04-03T00:00:51;4.40;99.90
10095;DHT22;5086;50.830;7.102;2023-04-03T00:03:19;4.40;99.90
10095;DHT22;5086;50.830;7.102;2023-04-03T00:05:47;4.40;99.90
10095;DHT22;5086;50.830;7.102;2023-04-03T00:08:15;4.40;99.90
10095;DHT22;5086;50.830;7.102;2023-04-03T00:10:41;4.30;99.90
10095;DHT22;5086;50.830;7.102;2023-04-03T00:13:08;4.30;99.90
10095;DHT22;5086;50.830;7.102;2023-04-03T00:15:36;4.30;99.90
10095;DHT22;5086;50.830;7.102;2023-04-03T00:18:04;4.20;99.90
10095;DHT22;5086;50.830;7.102;2023-04-03T00:20:31;4.20;99.90
10095;DHT22;5086;50.830;7.102;2023-04-03T00:23:00;4.20;99.90
10095;DHT22;5086;50.830;7.102;2023-04-03T00:25:27;4.20;99.90
10095;DHT22;5086;50.830;7.102;2023-04-03T00:27:54;4.10;99.90
10095;DHT22;5086;50.830;7.102;2023-04-03T00:30:22;4.00;99.90
10095;DHT22;5086;50.830;7.102;2023-04-03T00:32:49;3.90;99.90
10095;DHT22;5086;50.830;7.102;2023-04-03T00:35:17;4.00;99.90
10095;DHT22;5086;50.830;7.102;2023-04-03T00:37:44;3.90;99.90
10095;DHT22;5086;50.830;7.102;2023-04-03T00:40:14;3.90;99.90
10095;DHT22;5086;50.830;7.102;2023-04-03T00:42:43;3.70;99.90
10095;DHT22;5086;50.830;7.102;2023-04-03T00:45:33;3.80;99.90
10095;DHT22;5086;50.830;7.102;2023-04-03T00:48:01;3.90;99.90
10095;DHT22;5086;50.830;7.102;2023-04-03T00:50:31;3.80;99.90
10095;DHT22;5086;50.830;7.102;2023-04-03T00:52:58;3.80;99.90
10095;DHT22;5086;50.830;7.102;2023-04-03T00:55:27;3.80;99.90
10095;DHT22;5086;50.830;7.102;2023-04-03T00:57:55;3.80;99.90
10095;DHT22;5086;50.830;7.102;2023-04-03T01:00:23;3.80;99.90
10095;DHT22;5086;50.830;7.102;2023-04-03T01:02:51;3.70;99.90
10095;DHT22;5086;50.830;7.102;2023-04-03T01:05:19;3.70;99.90
10095;DHT22;5086;50.830;7.102;2023-04-03T01:07:47;3.70;99.90
10095;DHT22;5086;50.830;7.102;2023-04-03T01:10:16;3.70;99.90
10095;DHT22;5086;50.830;7.102;2023-04-03T01:12:48;3.70;99.90
10095;DHT22;5086;50.830;7.102;2023-04-03T01:15:18;3.70;99.90
10095;DHT22;5086;50.830;7.102;2023-04-03T01:17:47;3.60;99.90
10095;DHT22;5086;50.830;7.102;2023-04-03T01:20:59;3.60;99.90
10095;DHT22;5086;50.830;7.102;2023-04-03T01:23:54;3.70;99.90
10095;DHT22;5086;50.830;7.102;2023-04-03T01:26:22;3.60;99.90
10095;DHT22;5086;50.830;7.102;2023-04-03T01:28:53;3.60;99.90
10095;DHT22;5086;50.830;7.102;2023-04-03T01:31:24;3.50;99.90
10095;DHT22;5086;50.830;7.102;2023-04-03T01:33:54;3.40;99.90
10095;DHT22;5086;50.830;7.102;2023-04-03T01:36:22;3.30;99.90
10095;DHT22;5086;50.830;7.102;2023-04-03T01:38:51;3.30;99.90
10095;DHT22;5086;50.830;7.102;2023-04-03T01:41:19;3.30;99.90
10095;DHT22;5086;50.830;7.102;2023-04-03T01:43:46;3.40;99.90
10095;DHT22;5086;50.830;7.102;2023-04-03T01:46:13;3.40;99.90
10095;DHT22;5086;50.830;7.102;2023-04-03T01:48:40;3.40;99.90
10095;DHT22;5086;50.830;7.102;2023-04-03T01:51:09;3.30;99.90
10095;DHT22;5086;50.830;7.102;2023-04-03T01:53:36;3.30;99.90
10095;DHT22;5086;50.830;7.102;2023-04-03T01:56:03;3.30;99.90
10095;DHT22;5086;50.830;7.102;2023-04-03T01:58:30;3.20;99.90
10095;DHT22;5086;50.830;7.102;2023-04-03T02:00:57;3.20;99.90
10095;DHT22;5086;50.830;7.102;2023-04-03T02:03:24;3.10;99.90
10095;DHT22;5086;50.830;7.102;2023-04-03T02:05:52;3.10;99.90
10095;DHT22;5086;50.830;7.102;2023-04-03T02:08:20;3.00;99.90
10095;DHT22;5086;50.830;7.102;2023-04-03T02:10:48;3.00;99.90
10095;DHT22;5086;50.830;7.102;2023-04-03T02:13:15;2.90;99.90
10095;DHT22;5086;50.830;7.102;2023-04-03T02:15:42;2.80;99.90
10095;DHT22;5086;50.830;7.102;2023-04-03T02:18:09;2.80;99.90
10095;DHT22;5086;50.830;7.102;2023-04-03T02:20:36;2.80;99.90
10095;DHT22;5086;50.830;7.102;2023-04-03T02:23:03;2.80;99.90
10095;DHT22;5086;50.830;7.102;2023-04-03T02:25:32;2.80;99.90
10095;DHT22;5086;50.830;7.102;2023-04-03T02:27:59;2.70;99.90
10095;DHT22;5086;50.830;7.102;2023-04-03T02:30:26;2.70;99.90
10095;DHT22;5086;50.830;7.102;2023-04-03T02:32:53;2.70;99.90
10095;DHT22;5086;50.830;7.102;2023-04-03T02:35:20;2.70;99.90
10095;DHT22;5086;50.830;7.102;2023-04-03T02:37:47;2.60;99.90
10095;DHT22;5086;50.830;7.102;2023-04-03T02:40:14;2.60;99.90
10095;DHT22;5086;50.830;7.102;2023-04-03T02:42:42;2.60;99.90
10095;DHT22;5086;50.830;7.102;2023-04-03T02:45:10;2.60;99.90
10095;DHT22;5086;50.830;7.102;2023-04-03T02:47:37;2.60;99.90
10095;DHT22;5086;50.830;7.102;2023-04-03T02:50:05;2.60;99.90
10095;DHT22;5086;50.830;7.102;2023-04-03T02:52:32;2.50;99.90
10095;DHT22;5086;50.830;7.102;2023-04-03T02:54:58;2.60;99.90
10095;DHT22;5086;50.830;7.102;2023-04-03T02:57:25;2.50;99.90
10095;DHT22;5086;50.830;7.102;2023-04-03T02:59:54;2.50;99.90
10095;DHT22;5086;50.830;7.102;2023-04-03T03:02:21;2.50;99.90
10095;DHT22;5086;50.830;7.102;2023-04-03T03:04:47;2.40;99.90
10095;DHT22;5086;50.830;7.102;2023-04-03T03:07:14;2.30;99.90
10095;DHT22;5086;50.830;7.102;2023-04-03T03:09:41;2.30;99.90
10095;DHT22;5086;50.830;7.102;2023-04-03T03:12:08;2.20;99.90
10095;DHT22;5086;50.830;7.102;2023-04-03T03:14:35;2.10;99.90
10095;DHT22;5086;50.830;7.102;2023-04-03T03:17:03;2.00;99.90
10095;DHT22;5086;50.830;7.102;2023-04-03T03:19:30;1.90;99.90
10095;DHT22;5086;50.830;7.102;2023-04-03T03:21:57;1.80;99.90
10095;DHT22;5086;50.830;7.102;2023-04-03T03:24:24;1.80;99.90
10095;DHT22;5086;50.830;7.102;2023-04-03T03:26:51;1.80;99.90
10095;DHT22;5086;50.830;7.102;2023-04-03T03:29:18;1.80;99.90
10095;DHT22;5086;50.830;7.102;2023-04-03T03:31:45;1.70;99.90
10095;DHT22;5086;50.830;7.102;2023-04-03T03:34:13;1.70;99.90
10095;DHT22;5086;50.830;7.102;2023-04-03T03:36:40;1.70;99.90
10095;DHT22;5086;50.830;7.102;2023-04-03T03:39:07;1.70;99.90
10095;DHT22;5086;50.830;7.102;2023-04-03T03:41:34;1.70;99.90
10095;DHT22;5086;50.830;7.102;2023-04-03T03:44:01;1.70;99.90
10095;DHT22;5086;50.830;7.102;2023-04-03T03:46:28;1.70;99.90
10095;DHT22;5086;50.830;7.102;2023-04-03T03:48:55;1.60;99.90
10095;DHT22;5086;50.830;7.102;2023-04-03T03:51:23;1.60;99.90
10095;DHT22;5086;50.830;7.102;2023-04-03T03:53:50;1.60;99.90
10095;DHT22;5086;50.830;7.102;2023-04-03T03:56:17;1.50;99.90
10095;DHT22;5086;50.830;7.102;2023-04-03T03:58:44;1.50;99.90
10095;DHT22;5086;50.830;7.102;2023-04-03T04:01:11;1.50;99.90
10095;DHT22;5086;50.830;7.102;2023-04-03T04:03:38;1.50;99.90
10095;DHT22;5086;50.830;7.102;2023-04-03T04:06:05;1.40;99.90
10095;DHT22;5086;50.830;7.102;2023-04-03T04:08:33;1.30;99.90
10095;DHT22;5086;50.830;7.102;2023-04-03T04:11:00;1.30;99.90
10095;DHT22;5086;50.830;7.102;2023-04-03T04:13:27;1.30;99.90
10095;DHT22;5086;50.830;7.102;2023-04-03T04:15:54;1.40;99.90
10095;DHT22;5086;50.830;7.102;2023-04-03T04:18:21;1.40;99.90
10095;DHT22;5086;50.830;7.102;2023-04-03T04:20:48;1.30;99.90
10095;DHT22;5086;50.830;7.102;2023-04-03T04:23:15;1.40;99.90
10095;DHT22;5086;50.830;7.102;2023-04-03T04:25:45;1.40;99.90
10095;DHT22;5086;50.830;7.102;2023-04-03T04:28:12;1.50;99.90
10095;DHT22;5086;50.830;7.102;2023-04-03T04:30:39;1.50;99.90
10095;DHT22;5086;50.830;7.102;2023-04-03T04:33:07;1.50;99.90
10095;DHT22;5086;50.830;7.102;2023-04-03T04:35:34;1.50;99.90
10095;DHT22;5086;50.830;7.102;2023-04-03T04:38:01;1.60;99.90
10095;DHT22;5086;50.830;7.102;2023-04-03T04:40:28;1.60;99.90
10095;DHT22;5086;50.830;7.102;2023-04-03T04:42:57;1.60;99.90
10095;DHT22;5086;50.830;7.102;2023-04-03T04:45:24;1.60;99.90
10095;DHT22;5086;50.830;7.102;2023-04-03T04:47:51;1.50;99.90
10095;DHT22;5086;50.830;7.102;2023-04-03T04:50:18;1.60;99.90
10095;DHT22;5086;50.830;7.102;2023-04-03T04:52:45;1.60;99.90
10095;DHT22;5086;50.830;7.102;2023-04-03T04:55:12;1.50;99.90
10095;DHT22;5086;50.830;7.102;2023-04-03T04:57:39;1.50;99.90
10095;DHT22;5086;50.830;7.102;2023-04-03T05:00:09;1.50;99.90
10095;DHT22;5086;50.830;7.102;2023-04-03T05:02:36;1.60;99.90
10095;DHT22;5086;50.830;7.102;2023-04-03T05:05:03;1.50;99.90
10095;DHT22;5086;50.830;7.102;2023-04-03T05:07:30;1.50;99.90
10095;DHT22;5086;50.830;7.102;2023-04-03T05:09:57;1.50;99.90
10095;DHT22;5086;50.830;7.102;2023-04-03T05:12:24;1.50;99.90
10095;DHT22;5086;50.830;7.102;2023-04-03T05:14:51;1.50;99.90
10095;DHT22;5086;50.830;7.102;2023-04-03T05:17:19;1.50;99.90
10095;DHT22;5086;50.830;7.102;2023-04-03T05:19:46;1.60;99.90
10095;DHT22;5086;50.830;7.102;2023-04-03T05:22:14;1.60;99.90
10095;DHT22;5086;50.830;7.102;2023-04-03T05:24:40;1.60;99.90
10095;DHT22;5086;50.830;7.102;2023-04-03T05:27:07;1.60;99.90
10095;DHT22;5086;50.830;7.102;2023-04-03T05:29:34;1.60;99.90
10095;DHT22;5086;50.830;7.102;2023-04-03T05:32:01;1.70;99.90
10095;DHT22;5086;50.830;7.102;2023-04-03T05:34:29;1.70;99.90
10095;DHT22;5086;50.830;7.102;2023-04-03T05:36:56;1.80;99.90
10095;DHT22;5086;50.830;7.102;2023-04-03T05:39:23;1.90;99.90
10095;DHT22;5086;50.830;7.102;2023-04-03T05:41:51;2.00;99.90
10095;DHT22;5086;50.830;7.102;2023-04-03T05:44:17;2.00;99.90
10095;DHT22;5086;50.830;7.102;2023-04-03T05:46:44;2.10;99.90
10095;DHT22;5086;50.830;7.102;2023-04-03T05:49:11;2.10;99.90
10095;DHT22;5086;50.830;7.102;2023-04-03T05:51:40;2.20;99.90
10095;DHT22;5086;50.830;7.102;2023-04-03T05:54:12;2.30;99.90
10095;DHT22;5086;50.830;7.102;2023-04-03T05:56:39;2.30;99.90
10095;DHT22;5086;50.830;7.102;2023-04-03T05:59:06;2.30;99.90
10095;DHT22;5086;50.830;7.102;2023-04-03T06:01:33;2.40;99.90
10095;DHT22;5086;50.830;7.102;2023-04-03T06:04:01;2.50;99.90
10095;DHT22;5086;50.830;7.102;2023-04-03T06:09:27;2.50;99.90
10095;DHT22;5086;50.830;7.102;2023-04-03T06:11:54;2.80;99.90
10095;DHT22;5086;50.830;7.102;2023-04-03T06:14:21;2.90;99.90
10095;DHT22;5086;50.830;7.102;2023-04-03T06:16:48;3.30;99.90
10095;DHT22;5086;50.830;7.102;2023-04-03T06:19:15;3.60;99.90
10095;DHT22;5086;50.830;7.102;2023-04-03T06:21:42;3.90;99.90
10095;DHT22;5086;50.830;7.102;2023-04-03T06:24:11;4.40;99.90
10095;DHT22;5086;50.830;7.102;2023-04-03T06:26:40;4.40;99.90
10095;DHT22;5086;50.830;7.102;2023-04-03T06:29:07;4.50;99.90
10095;DHT22;5086;50.830;7.102;2023-04-03T06:31:34;4.70;99.90
10095;DHT22;5086;50.830;7.102;2023-04-03T06:34:02;4.80;99.90
10095;DHT22;5086;50.830;7.102;2023-04-03T06:36:29;4.80;99.90
10095;DHT22;5086;50.830;7.102;2023-04-03T06:38:56;4.40;99.90
10095;DHT22;5086;50.830;7.102;2023-04-03T06:41:22;4.60;99.90
10095;DHT22;5086;50.830;7.102;2023-04-03T06:43:53;5.00;99.90
10095;DHT22;5086;50.830;7.102;2023-04-03T06:46:22;5.10;99.90
10095;DHT22;5086;50.830;7.102;2023-04-03T06:48:49;4.90;99.90
10095;DHT22;5086;50.830;7.102;2023-04-03T06:51:21;5.10;99.90
10095;DHT22;5086;50.830;7.102;2023-04-03T06:53:48;5.10;99.90
10095;DHT22;5086;50.830;7.102;2023-04-03T06:56:16;5.20;99.90
10095;DHT22;5086;50.830;7.102;2023-04-03T06:58:44;5.20;99.90
10095;DHT22;5086;50.830;7.102;2023-04-03T07:01:15;5.20;99.90
10095;DHT22;5086;50.830;7.102;2023-04-03T07:03:43;5.60;99.90
10095;DHT22;5086;50.830;7.102;2023-04-03T07:06:11;5.40;99.90
10095;DHT22;5086;50.830;7.102;2023-04-03T07:08:39;5.40;99.90
10095;DHT22;5086;50.830;7.102;2023-04-03T07:11:06;5.30;99.90
10095;DHT22;5086;50.830;7.102;2023-04-03T07:13:33;5.40;99.90
10095;DHT22;5086;50.830;7.102;2023-04-03T07:16:00;5.70;99.90
10095;DHT22;5086;50.830;7.102;2023-04-03T07:18:30;5.70;99.90
10095;DHT22;5086;50.830;7.102;2023-04-03T07:20:57;5.90;99.90
10095;DHT22;5086;50.830;7.102;2023-04-03T07:23:24;6.10;99.90
10095;DHT22;5086;50.830;7.102;2023-04-03T07:25:52;6.20;99.90
10095;DHT22;5086;50.830;7.102;2023-04-03T07:28:22;6.40;99.90
10095;DHT22;5086;50.830;7.102;2023-04-03T07:30:51;6.10;99.90
10095;DHT22;5086;50.830;7.102;2023-04-03T07:33:20;5.60;99.90
10095;DHT22;5086;50.830;7.102;2023-04-03T07:35:49;5.60;99.90
10095;DHT22;5086;50.830;7.102;2023-04-03T07:38:16;5.60;99.90
10095;DHT22;5086;50.830;7.102;2023-04-03T07:40:46;5.70;99.90
10095;DHT22;5086;50.830;7.102;2023-04-03T07:43:13;5.60;99.90
10095;DHT22;5086;50.830;7.102;2023-04-03T07:45:40;5.70;99.90
10095;DHT22;5086;50.830;7.102;2023-04-03T07:48:07;5.80;99.90
10095;DHT22;5086;50.830;7.102;2023-04-03T07:50:34;6.10;99.90
10095;DHT22;5086;50.830;7.102;2023-04-03T07:53:03;6.10;99.90
10095;DHT22;5086;50.830;7.102;2023-04-03T07:55:31;6.00;99.90
10095;DHT22;5086;50.830;7.102;2023-04-03T07:57:59;6.20;99.90
10095;DHT22;5086;50.830;7.102;2023-04-03T08:00:26;6.50;99.90
10095;DHT22;5086;50.830;7.102;2023-04-03T08:02:53;6.40;99.90
10095;DHT22;5086;50.830;7.102;2023-04-03T08:05:21;6.30;99.90
10095;DHT22;5086;50.830;7.102;2023-04-03T08:07:48;6.60;99.90
10095;DHT22;5086;50.830;7.102;2023-04-03T08:10:16;6.40;99.90
10095;DHT22;5086;50.830;7.102;2023-04-03T08:12:45;6.30;99.90
10095;DHT22;5086;50.830;7.102;2023-04-03T08:15:12;6.20;99.90
10095;DHT22;5086;50.830;7.102;2023-04-03T08:17:40;6.30;99.90
10095;DHT22;5086;50.830;7.102;2023-04-03T08:20:09;6.50;99.90
10095;DHT22;5086;50.830;7.102;2023-04-03T08:22:36;6.60;99.90
10095;DHT22;5086;50.830;7.102;2023-04-03T08:25:04;6.20;99.90
10095;DHT22;5086;50.830;7.102;2023-04-03T08:27:33;6.30;99.90
10095;DHT22;5086;50.830;7.102;2023-04-03T08:30:00;6.30;99.90
10095;DHT22;5086;50.830;7.102;2023-04-03T08:32:28;6.30;99.90
10095;DHT22;5086;50.830;7.102;2023-04-03T08:34:55;6.50;99.90
10095;DHT22;5086;50.830;7.102;2023-04-03T08:37:22;6.60;99.90
10095;DHT22;5086;50.830;7.102;2023-04-03T08:39:49;6.30;99.90
10095;DHT22;5086;50.830;7.102;2023-04-03T08:42:28;6.30;99.90
10095;DHT22;5086;50.830;7.102;2023-04-03T08:45:09;6.10;99.90
10095;DHT22;5086;50.830;7.102;2023-04-03T08:47:40;6.60;99.90
10095;DHT22;5086;50.830;7.102;2023-04-03T08:50:13;7.10;99.90
10095;DHT22;5086;50.830;7.102;2023-04-03T08:52:44;7.20;99.90
10095;DHT22;5086;50.830;7.102;2023-04-03T08:55:19;7.00;99.90
10095;DHT22;5086;50.830;7.102;2023-04-03T08:57:53;7.10;99.90
10095;DHT22;5086;50.830;7.102;2023-04-03T09:00:27;6.80;99.90
10095;DHT22;5086;50.830;7.102;2023-04-03T09:02:56;6.50;99.90
10095;DHT22;5086;50.830;7.102;2023-04-03T09:05:32;6.50;99.90
10095;DHT22;5086;50.830;7.102;2023-04-03T09:08:09;6.70;99.90
10095;DHT22;5086;50.830;7.102;2023-04-03T09:10:39;6.80;99.90
10095;DHT22;5086;50.830;7.102;2023-04-03T09:13:12;6.50;99.90
10095;DHT22;5086;50.830;7.102;2023-04-03T09:15:44;6.80;99.90
10095;DHT22;5086;50.830;7.102;2023-04-03T09:18:15;6.70;99.90
10095;DHT22;5086;50.830;7.102;2023-04-03T09:20:46;7.10;99.90
10095;DHT22;5086;50.830;7.102;2023-04-03T09:23:22;7.00;99.90
10095;DHT22;5086;50.830;7.102;2023-04-03T09:25:54;6.90;99.90
10095;DHT22;5086;50.830;7.102;2023-04-03T09:28:23;6.80;99.90
10095;DHT22;5086;50.830;7.102;2023-04-03T09:30:52;7.10;99.90
10095;DHT22;5086;50.830;7.102;2023-04-03T09:33:22;6.80;99.90
10095;DHT22;5086;50.830;7.102;2023-04-03T09:35:50;6.90;99.90
10095;DHT22;5086;50.830;7.102;2023-04-03T09:38:20;7.20;99.90
10095;DHT22;5086;50.830;7.102;2023-04-03T09:40:50;7.10;99.90
10095;DHT22;5086;50.830;7.102;2023-04-03T09:43:27;7.10;99.90
10095;DHT22;5086;50.830;7.102;2023-04-03T09:45:56;7.00;99.90
10095;DHT22;5086;50.830;7.102;2023-04-03T09:48:50;6.90;99.90
10095;DHT22;5086;50.830;7.102;2023-04-03T09:51:17;6.70;99.90
10095;DHT22;5086;50.830;7.102;2023-04-03T09:53:45;7.10;99.90
10095;DHT22;5086;50.830;7.102;2023-04-03T09:56:21;6.70;99.90
10095;DHT22;5086;50.830;7.102;2023-04-03T09:58:50;6.70;99.90
10095;DHT22;5086;50.830;7.102;2023-04-03T10:01:26;6.80;99.90
10095;DHT22;5086;50.830;7.102;2023-04-03T10:04:08;7.00;99.90
10095;DHT22;5086;50.830;7.102;2023-04-03T10:06:37;7.10;99.90
10095;DHT22;5086;50.830;7.102;2023-04-03T10:09:18;7.00;99.90
10095;DHT22;5086;50.830;7.102;2023-04-03T10:12:03;7.30;99.90
10095;DHT22;5086;50.830;7.102;2023-04-03T10:14:33;7.50;99.90
10095;DHT22;5086;50.830;7.102;2023-04-03T10:17:15;7.50;99.90
10095;DHT22;5086;50.830;7.102;2023-04-03T10:19:46;7.30;99.90
10095;DHT22;5086;50.830;7.102;2023-04-03T10:22:20;7.40;99.90
10095;DHT22;5086;50.830;7.102;2023-04-03T10:24:56;7.50;99.90
10095;DHT22;5086;50.830;7.102;2023-04-03T10:27:36;7.30;99.90
10095;DHT22;5086;50.830;7.102;2023-04-03T10:30:19;7.40;99.90
10095;DHT22;5086;50.830;7.102;2023-04-03T10:32:54;7.50;99.90
10095;DHT22;5086;50.830;7.102;2023-04-03T10:35:34;7.60;99.90
10095;DHT22;5086;50.830;7.102;2023-04-03T10:38:09;7.50;99.90
10095;DHT22;5086;50.830;7.102;2023-04-03T10:40:48;7.40;99.90
10095;DHT22;5086;50.830;7.102;2023-04-03T10:43:21;7.30;99.90
10095;DHT22;5086;50.830;7.102;2023-04-03T10:45:56;7.50;99.90
10095;DHT22;5086;50.830;7.102;2023-04-03T10:51:31;7.30;99.90
10095;DHT22;5086;50.830;7.102;2023-04-03T10:54:04;7.20;99.90
10095;DHT22;5086;50.830;7.102;2023-04-03T10:56:35;7.30;99.90
10095;DHT22;5086;50.830;7.102;2023-04-03T10:59:18;7.40;99.90
10095;DHT22;5086;50.830;7.102;2023-04-03T11:01:50;7.40;99.90
10095;DHT22;5086;50.830;7.102;2023-04-03T11:04:19;7.50;99.90
10095;DHT22;5086;50.830;7.102;2023-04-03T11:06:53;7.80;99.90
10095;DHT22;5086;50.830;7.102;2023-04-03T11:09:26;7.70;99.90
10095;DHT22;5086;50.830;7.102;2023-04-03T11:11:56;7.80;99.90
10095;DHT22;5086;50.830;7.102;2023-04-03T11:14:29;7.70;99.90
10095;DHT22;5086;50.830;7.102;2023-04-03T11:17:05;7.90;99.90
10095;DHT22;5086;50.830;7.102;2023-04-03T11:19:38;7.90;99.90
10095;DHT22;5086;50.830;7.102;2023-04-03T11:22:11;7.90;99.90
10095;DHT22;5086;50.830;7.102;2023-04-03T11:24:42;7.70;99.90
10095;DHT22;5086;50.830;7.102;2023-04-03T11:27:16;7.60;99.00
10095;DHT22;5086;50.830;7.102;2023-04-03T11:29:45;7.70;99.00
10095;DHT22;5086;50.830;7.102;2023-04-03T11:32:32;7.70;98.40
10095;DHT22;5086;50.830;7.102;2023-04-03T11:35:05;7.80;97.80
10095;DHT22;5086;50.830;7.102;2023-04-03T11:37:38;7.60;98.30
10095;DHT22;5086;50.830;7.102;2023-04-03T11:40:12;7.70;97.40
10095;DHT22;5086;50.830;7.102;2023-04-03T11:42:47;7.90;98.70
10095;DHT22;5086;50.830;7.102;2023-04-03T11:45:35;7.90;97.30
10095;DHT22;5086;50.830;7.102;2023-04-03T11:48:05;8.00;98.10
10095;DHT22;5086;50.830;7.102;2023-04-03T11:50:43;7.80;97.90
10095;DHT22;5086;50.830;7.102;2023-04-03T11:53:31;8.20;97.70
10095;DHT22;5086;50.830;7.102;2023-04-03T11:56:01;8.30;99.00
10095;DHT22;5086;50.830;7.102;2023-04-03T11:58:31;8.20;97.90
10095;DHT22;5086;50.830;7.102;2023-04-03T12:01:08;8.30;97.30
10095;DHT22;5086;50.830;7.102;2023-04-03T12:10:13;8.30;96.70
10095;DHT22;5086;50.830;7.102;2023-04-03T12:12:41;8.20;96.10
10095;DHT22;5086;50.830;7.102;2023-04-03T12:15:38;8.40;95.80
10095;DHT22;5086;50.830;7.102;2023-04-03T12:21:19;8.40;94.60
10095;DHT22;5086;50.830;7.102;2023-04-03T12:24:03;8.40;94.00
10095;DHT22;5086;50.830;7.102;2023-04-03T12:26:36;8.40;93.00
10095;DHT22;5086;50.830;7.102;2023-04-03T12:29:14;8.50;93.90
10095;DHT22;5086;50.830;7.102;2023-04-03T12:31:48;8.40;92.80
10095;DHT22;5086;50.830;7.102;2023-04-03T12:34:33;8.40;92.50
10095;DHT22;5086;50.830;7.102;2023-04-03T12:37:09;8.20;92.80
10095;DHT22;5086;50.830;7.102;2023-04-03T12:39:52;8.30;92.70
10095;DHT22;5086;50.830;7.102;2023-04-03T12:42:45;8.40;92.70
10095;DHT22;5086;50.830;7.102;2023-04-03T12:45:19;8.60;92.50
10095;DHT22;5086;50.830;7.102;2023-04-03T12:47:49;8.50;92.40
10095;DHT22;5086;50.830;7.102;2023-04-03T12:50:20;8.30;93.90
10095;DHT22;5086;50.830;7.102;2023-04-03T12:52:54;8.50;97.10
10095;DHT22;5086;50.830;7.102;2023-04-03T12:55:22;8.50;94.20
10095;DHT22;5086;50.830;7.102;2023-04-03T12:57:50;8.60;92.70
10095;DHT22;5086;50.830;7.102;2023-04-03T13:00:30;8.60;90.50
10095;DHT22;5086;50.830;7.102;2023-04-03T13:02:59;8.60;92.60
10095;DHT22;5086;50.830;7.102;2023-04-03T13:05:27;8.80;95.20
10095;DHT22;5086;50.830;7.102;2023-04-03T13:07:58;8.90;92.30
10095;DHT22;5086;50.830;7.102;2023-04-03T13:10:27;8.60;91.20
10095;DHT22;5086;50.830;7.102;2023-04-03T13:12:57;8.50;90.70
10095;DHT22;5086;50.830;7.102;2023-04-03T13:15:27;8.60;93.00
10095;DHT22;5086;50.830;7.102;2023-04-03T13:17:54;8.70;92.80
10095;DHT22;5086;50.830;7.102;2023-04-03T13:20:24;8.90;91.80
10095;DHT22;5086;50.830;7.102;2023-04-03T13:22:56;8.90;93.30
10095;DHT22;5086;50.830;7.102;2023-04-03T13:25:26;9.00;93.20
10095;DHT22;5086;50.830;7.102;2023-04-03T13:27:55;9.10;92.70
10095;DHT22;5086;50.830;7.102;2023-04-03T13:30:29;9.00;91.80
10095;DHT22;5086;50.830;7.102;2023-04-03T13:32:58;8.90;90.20
10095;DHT22;5086;50.830;7.102;2023-04-03T13:35:31;8.90;90.80
10095;DHT22;5086;50.830;7.102;2023-04-03T13:38:01;9.00;94.40
10095;DHT22;5086;50.830;7.102;2023-04-03T13:40:28;8.90;91.60
10095;DHT22;5086;50.830;7.102;2023-04-03T13:43:02;8.90;93.90
10095;DHT22;5086;50.830;7.102;2023-04-03T13:45:30;8.90;92.30
10095;DHT22;5086;50.830;7.102;2023-04-03T13:48:14;9.00;92.60
10095;DHT22;5086;50.830;7.102;2023-04-03T13:50:55;9.10;91.90
10095;DHT22;5086;50.830;7.102;2023-04-03T13:53:23;9.10;94.00
10095;DHT22;5086;50.830;7.102;2023-04-03T13:56:06;9.10;93.10
10095;DHT22;5086;50.830;7.102;2023-04-03T13:58:36;9.10;91.50
10095;DHT22;5086;50.830;7.102;2023-04-03T14:01:10;9.00;90.90
10095;DHT22;5086;50.830;7.102;2023-04-03T14:03:43;9.10;91.10
10095;DHT22;5086;50.830;7.102;2023-04-03T14:06:11;9.10;90.80
10095;DHT22;5086;50.830;7.102;2023-04-03T14:08:38;9.10;91.40
10095;DHT22;5086;50.830;7.102;2023-04-03T14:11:10;9.30;91.60
10095;DHT22;5086;50.830;7.102;2023-04-03T14:13:40;9.30;91.90
10095;DHT22;5086;50.830;7.102;2023-04-03T14:16:11;9.20;93.30
10095;DHT22;5086;50.830;7.102;2023-04-03T14:18:39;9.10;92.90
10095;DHT22;5086;50.830;7.102;2023-04-03T14:21:06;9.10;93.30
10095;DHT22;5086;50.830;7.102;2023-04-03T14:23:33;9.20;95.00
10095;DHT22;5086;50.830;7.102;2023-04-03T14:26:00;9.20;91.70
10095;DHT22;5086;50.830;7.102;2023-04-03T14:28:27;9.30;92.10
10095;DHT22;5086;50.830;7.102;2023-04-03T14:30:55;9.30;91.90
10095;DHT22;5086;50.830;7.102;2023-04-03T14:33:23;9.30;92.10
10095;DHT22;5086;50.830;7.102;2023-04-03T14:35:52;9.30;92.20
10095;DHT22;5086;50.830;7.102;2023-04-03T14:38:24;9.40;92.60
10095;DHT22;5086;50.830;7.102;2023-04-03T14:40:53;9.20;91.70
10095;DHT22;5086;50.830;7.102;2023-04-03T14:43:20;9.30;93.50
10095;DHT22;5086;50.830;7.102;2023-04-03T14:45:48;9.40;94.30
10095;DHT22;5086;50.830;7.102;2023-04-03T14:48:19;9.50;93.00
10095;DHT22;5086;50.830;7.102;2023-04-03T14:50:47;9.40;92.60
10095;DHT22;5086;50.830;7.102;2023-04-03T14:53:14;9.30;92.40
10095;DHT22;5086;50.830;7.102;2023-04-03T14:55:43;9.30;91.00
10095;DHT22;5086;50.830;7.102;2023-04-03T14:58:13;9.30;90.90
10095;DHT22;5086;50.830;7.102;2023-04-03T15:00:41;9.40;91.40
10095;DHT22;5086;50.830;7.102;2023-04-03T15:03:14;9.50;91.00
10095;DHT22;5086;50.830;7.102;2023-04-03T15:05:44;9.40;90.90
10095;DHT22;5086;50.830;7.102;2023-04-03T15:08:19;9.40;91.60
10095;DHT22;5086;50.830;7.102;2023-04-03T15:10:46;9.30;90.60
10095;DHT22;5086;50.830;7.102;2023-04-03T15:13:14;9.40;91.70
10095;DHT22;5086;50.830;7.102;2023-04-03T15:15:42;9.40;91.40
10095;DHT22;5086;50.830;7.102;2023-04-03T15:18:16;9.40;92.10
10095;DHT22;5086;50.830;7.102;2023-04-03T15:20:46;9.30;92.00
10095;DHT22;5086;50.830;7.102;2023-04-03T15:23:14;9.30;93.00
10095;DHT22;5086;50.830;7.102;2023-04-03T15:25:42;9.20;90.90
10095;DHT22;5086;50.830;7.102;2023-04-03T15:28:16;9.20;91.20
10095;DHT22;5086;50.830;7.102;2023-04-03T15:30:44;9.30;91.10
10095;DHT22;5086;50.830;7.102;2023-04-03T15:33:11;9.30;90.80
10095;DHT22;5086;50.830;7.102;2023-04-03T15:35:38;9.30;91.00
10095;DHT22;5086;50.830;7.102;2023-04-03T15:38:06;9.20;91.10
10095;DHT22;5086;50.830;7.102;2023-04-03T15:40:33;9.30;91.30
10095;DHT22;5086;50.830;7.102;2023-04-03T15:43:00;9.40;91.70
10095;DHT22;5086;50.830;7.102;2023-04-03T15:45:28;9.40;91.70
10095;DHT22;5086;50.830;7.102;2023-04-03T15:47:56;9.50;92.30
10095;DHT22;5086;50.830;7.102;2023-04-03T15:50:23;9.40;91.30
10095;DHT22;5086;50.830;7.102;2023-04-03T15:52:53;9.50;91.60
10095;DHT22;5086;50.830;7.102;2023-04-03T15:55:25;9.40;91.70
10095;DHT22;5086;50.830;7.102;2023-04-03T15:57:52;9.40;90.50
10095;DHT22;5086;50.830;7.102;2023-04-03T16:00:19;9.40;89.50
10095;DHT22;5086;50.830;7.102;2023-04-03T16:02:47;9.30;89.40
10095;DHT22;5086;50.830;7.102;2023-04-03T16:05:15;9.30;89.60
10095;DHT22;5086;50.830;7.102;2023-04-03T16:07:43;9.20;89.70
10095;DHT22;5086;50.830;7.102;2023-04-03T16:10:11;9.10;88.70
10095;DHT22;5086;50.830;7.102;2023-04-03T16:12:40;9.10;89.60
10095;DHT22;5086;50.830;7.102;2023-04-03T16:15:08;9.20;89.50
10095;DHT22;5086;50.830;7.102;2023-04-03T16:17:36;9.10;88.70
10095;DHT22;5086;50.830;7.102;2023-04-03T16:20:04;9.10;89.10
10095;DHT22;5086;50.830;7.102;2023-04-03T16:22:32;9.10;90.20
10095;DHT22;5086;50.830;7.102;2023-04-03T16:24:59;9.00;90.30
10095;DHT22;5086;50.830;7.102;2023-04-03T16:27:27;9.00;91.20
10095;DHT22;5086;50.830;7.102;2023-04-03T16:29:57;9.00;92.00
10095;DHT22;5086;50.830;7.102;2023-04-03T16:32:27;9.00;90.90
10095;DHT22;5086;50.830;7.102;2023-04-03T16:34:55;9.00;90.90